Terminal Aerodrome Forecast
Issued by NWS

Home | Current Version | Previous Version | Text Only | Print | Product List | Glossary On
Versions: 1 2 3 4 5 6 7 8 9 10 11 12
198
FTUS46 KSTO 292332
TAFSAC
TAF
KSAC 292332Z 3000/3024 20006KT P6SM BKN150
     FM300600 21011KT P6SM VCSH BKN050
      TEMPO 3011/3013 OVC030
     FM301500 32015G25KT P6SM SKC=

USA.gov is the U.S. government's official web portal to all federal, state and local government web resources and services.